Time;durP1;ratioP1;P1;durP2;ratioP2;P2;SDS_P1;SDS_P2;PMS_P1;PMS_P2;Temp;Humidity;BMP_temperature;BMP_pressure;BME280_temperature;BME280_humidity;BME280_pressure;Samples;Min_cycle;Max_cycle;Signal;HPM_P1;HPM_P2
2022/10/26 00:01:28;;;;;;;;;;;17.10;97.20;;;;;;5047951;28;19917;-81
2022/10/26 00:03:54;;;;;;;;;;;17.10;97.20;;;;;;5047302;28;20744;-82
2022/10/26 00:06:21;;;;;;;;;;;17.00;97.20;;;;;;5047851;28;19917;-82
2022/10/26 00:08:47;;;;;;;;;;;17.00;97.30;;;;;;5047809;28;19920;-82
2022/10/26 00:11:13;;;;;;;;;;;17.10;97.10;;;;;;5047715;28;19939;-82
2022/10/26 00:13:39;;;;;;;;;;;17.20;97.00;;;;;;5030223;28;20465;-82
2022/10/26 00:16:08;;;;;;;;;;;17.00;97.20;;;;;;5047430;28;20083;-82
2022/10/26 00:18:34;;;;;;;;;;;17.00;97.50;;;;;;5030094;28;19913;-81
2022/10/26 00:21:03;;;;;;;;;;;17.00;97.40;;;;;;5048035;28;19916;-83
2022/10/26 00:23:30;;;;;;;;;;;16.90;97.60;;;;;;5042312;28;19982;-84
2022/10/26 00:25:55;;;;;;;;;;;16.90;97.80;;;;;;5026101;28;19964;-84
2022/10/26 00:28:21;;;;;;;;;;;16.80;98.10;;;;;;5045386;28;19956;-81
2022/10/26 00:30:47;;;;;;;;;;;16.70;98.20;;;;;;5045493;28;19921;-81
2022/10/26 00:33:12;;;;;;;;;;;16.80;98.30;;;;;;5028697;28;19988;-82
2022/10/26 00:35:38;;;;;;;;;;;16.80;98.30;;;;;;5046474;28;19916;-80
2022/10/26 00:38:04;;;;;;;;;;;16.80;98.40;;;;;;5027055;28;19916;-80
2022/10/26 00:40:29;;;;;;;;;;;16.70;98.70;;;;;;5045955;28;20408;-81
2022/10/26 00:42:55;;;;;;;;;;;16.80;98.60;;;;;;5047340;28;19959;-80
2022/10/26 00:45:22;;;;;;;;;;;16.80;98.80;;;;;;5047016;28;19975;-82
2022/10/26 00:48:00;;;;;;;;;;;16.60;99.00;;;;;;5047488;28;19966;-83
2022/10/26 00:50:29;;;;;;;;;;;16.70;99.20;;;;;;5047022;28;20410;-84
2022/10/26 00:52:56;;;;;;;;;;;16.80;99.00;;;;;;5047068;28;20646;-84
2022/10/26 00:55:25;;;;;;;;;;;16.70;99.20;;;;;;5045606;28;19916;-84
2022/10/26 00:57:52;;;;;;;;;;;16.70;99.50;;;;;;5047425;28;20544;-84
2022/10/26 01:00:18;;;;;;;;;;;16.40;99.80;;;;;;5046303;28;19921;-83
2022/10/26 01:02:45;;;;;;;;;;;16.30;99.90;;;;;;5045241;28;20000;-84
2022/10/26 01:05:11;;;;;;;;;;;16.10;99.90;;;;;;5045725;28;20830;-84
2022/10/26 01:07:36;;;;;;;;;;;16.00;99.90;;;;;;5029540;28;19913;-84
2022/10/26 01:10:02;;;;;;;;;;;15.90;99.90;;;;;;5026500;28;19928;-85
2022/10/26 01:12:28;;;;;;;;;;;16.10;99.90;;;;;;5027708;28;20437;-85
2022/10/26 01:14:53;;;;;;;;;;;16.00;99.90;;;;;;5027796;28;19932;-81
2022/10/26 01:17:28;;;;;;;;;;;16.00;99.90;;;;;;5046693;28;20030;-82
2022/10/26 01:19:56;;;;;;;;;;;15.90;99.90;;;;;;5045882;28;19916;-82
2022/10/26 01:22:24;;;;;;;;;;;15.80;99.90;;;;;;5045448;28;19925;-82
2022/10/26 01:24:57;;;;;;;;;;;15.70;99.90;;;;;;5044645;28;19940;-82
2022/10/26 01:27:25;;;;;;;;;;;15.90;99.90;;;;;;5026738;28;19979;-82
2022/10/26 01:29:54;;;;;;;;;;;15.80;99.90;;;;;;5045325;28;19927;-82
2022/10/26 01:32:27;;;;;;;;;;;15.60;99.90;;;;;;5045806;28;19939;-81
2022/10/26 01:34:56;;;;;;;;;;;15.60;99.90;;;;;;5027871;28;20314;-82
2022/10/26 01:37:25;;;;;;;;;;;15.60;99.90;;;;;;5024018;28;20346;-82
2022/10/26 01:39:55;;;;;;;;;;;15.60;99.90;;;;;;5045008;28;19917;-83
2022/10/26 01:42:22;;;;;;;;;;;15.60;99.90;;;;;;5047150;28;19927;-83
2022/10/26 01:44:51;;;;;;;;;;;15.60;99.90;;;;;;5050026;28;20400;-83
2022/10/26 01:47:17;;;;;;;;;;;15.50;99.90;;;;;;5048278;28;19940;-83
2022/10/26 01:49:46;;;;;;;;;;;15.50;99.90;;;;;;5049734;28;19917;-83
2022/10/26 01:52:12;;;;;;;;;;;15.60;99.90;;;;;;5030201;28;19916;-81
2022/10/26 01:54:38;;;;;;;;;;;15.60;99.90;;;;;;5048720;28;20448;-81
2022/10/26 01:57:05;;;;;;;;;;;15.60;99.90;;;;;;5046117;28;19917;-82
2022/10/26 01:59:46;;;;;;;;;;;15.50;99.90;;;;;;5049118;28;20451;-82
2022/10/26 02:02:15;;;;;;;;;;;15.70;99.90;;;;;;5044975;28;20510;-81
2022/10/26 02:05:06;;;;;;;;;;;15.60;99.90;;;;;;5049321;28;19943;-80
2022/10/26 02:07:52;;;;;;;;;;;15.50;99.90;;;;;;5048922;28;19966;-81
2022/10/26 02:10:37;;;;;;;;;;;15.40;99.90;;;;;;5047380;28;19913;-81
2022/10/26 02:13:19;;;;;;;;;;;15.40;99.90;;;;;;5047966;28;19921;-79
2022/10/26 02:15:47;;;;;;;;;;;15.40;99.90;;;;;;5027438;28;19956;-79
2022/10/26 02:18:32;;;;;;;;;;;15.30;99.90;;;;;;5049782;28;19913;-79
2022/10/26 02:21:05;;;;;;;;;;;15.30;99.90;;;;;;5030369;28;19917;-81
2022/10/26 02:23:32;;;;;;;;;;;15.20;99.90;;;;;;5047232;28;19921;-81
2022/10/26 02:26:00;;;;;;;;;;;15.20;99.90;;;;;;5034134;28;19917;-81
2022/10/26 02:28:29;;;;;;;;;;;15.10;99.90;;;;;;5040959;28;20386;-80
2022/10/26 02:30:57;;;;;;;;;;;15.00;99.90;;;;;;5049658;28;19921;-81
2022/10/26 02:33:23;;;;;;;;;;;14.90;99.90;;;;;;5048188;28;19917;-82
2022/10/26 02:35:51;;;;;;;;;;;14.80;99.90;;;;;;5048606;28;19951;-81
2022/10/26 02:38:17;;;;;;;;;;;14.80;99.90;;;;;;5048928;28;21952;-81
2022/10/26 02:40:44;;;;;;;;;;;14.70;99.90;;;;;;5047095;28;19917;-81
2022/10/26 02:43:12;;;;;;;;;;;14.80;99.90;;;;;;5047856;28;19921;-83
2022/10/26 02:45:46;;;;;;;;;;;14.70;99.90;;;;;;5048761;28;19917;-81
2022/10/26 02:48:12;;;;;;;;;;;14.70;99.90;;;;;;5044390;28;19924;-81
2022/10/26 02:50:45;;;;;;;;;;;14.70;99.90;;;;;;5048045;28;19913;-81
2022/10/26 02:53:17;;;;;;;;;;;14.70;99.90;;;;;;5043130;28;19923;-79
2022/10/26 02:55:47;;;;;;;;;;;14.70;99.90;;;;;;5027499;28;19917;-79
2022/10/26 02:58:15;;;;;;;;;;;14.70;99.90;;;;;;5030803;28;19923;-80
2022/10/26 03:00:41;;;;;;;;;;;14.70;99.90;;;;;;5047963;28;20030;-80
2022/10/26 03:03:07;;;;;;;;;;;14.60;99.90;;;;;;5047801;28;20010;-80
2022/10/26 03:05:34;;;;;;;;;;;14.50;99.90;;;;;;5047318;28;19929;-79
2022/10/26 03:08:00;;;;;;;;;;;14.60;99.90;;;;;;5047293;28;19951;-80
2022/10/26 03:10:26;;;;;;;;;;;14.60;99.90;;;;;;5028729;28;19948;-79
2022/10/26 03:12:52;;;;;;;;;;;14.60;99.90;;;;;;5046883;28;20316;-80
2022/10/26 03:15:17;;;;;;;;;;;14.60;99.90;;;;;;5048194;28;19924;-80
2022/10/26 03:17:43;;;;;;;;;;;14.60;99.90;;;;;;5050730;28;20410;-81
2022/10/26 03:20:09;;;;;;;;;;;14.60;99.90;;;;;;5029838;28;20793;-80
2022/10/26 03:22:34;;;;;;;;;;;14.60;99.90;;;;;;5048205;28;19921;-80
2022/10/26 03:25:00;;;;;;;;;;;14.60;99.90;;;;;;5047646;28;19939;-79
2022/10/26 03:27:26;;;;;;;;;;;14.50;99.90;;;;;;5027556;28;20015;-79
2022/10/26 03:29:51;;;;;;;;;;;14.50;99.90;;;;;;5047036;28;19921;-80
2022/10/26 03:32:17;;;;;;;;;;;14.50;99.90;;;;;;5028814;28;19912;-80
2022/10/26 03:34:43;;;;;;;;;;;14.50;99.90;;;;;;5048311;28;20007;-82
2022/10/26 03:37:08;;;;;;;;;;;14.50;99.90;;;;;;5048244;28;19920;-83
2022/10/26 03:39:34;;;;;;;;;;;14.50;99.90;;;;;;5048625;28;20448;-84
2022/10/26 03:41:59;;;;;;;;;;;14.50;99.90;;;;;;5047305;28;20413;-84
2022/10/26 03:44:25;;;;;;;;;;;14.50;99.90;;;;;;5029213;28;19952;-84
2022/10/26 03:46:50;;;;;;;;;;;14.50;99.90;;;;;;5047993;28;19928;-82
2022/10/26 03:49:16;;;;;;;;;;;14.40;99.90;;;;;;5048122;28;20773;-80
2022/10/26 03:51:41;;;;;;;;;;;14.40;99.90;;;;;;5046472;28;19928;-80
2022/10/26 03:54:07;;;;;;;;;;;14.30;99.90;;;;;;5046988;28;19921;-82
2022/10/26 03:56:32;;;;;;;;;;;14.30;99.90;;;;;;5046303;28;20399;-82
2022/10/26 03:58:58;;;;;;;;;;;14.30;99.90;;;;;;5029413;28;19913;-81
2022/10/26 04:01:23;;;;;;;;;;;14.30;99.90;;;;;;5046964;28;19921;-83
2022/10/26 04:03:49;;;;;;;;;;;14.20;99.90;;;;;;5044105;28;20524;-82
2022/10/26 04:06:14;;;;;;;;;;;14.20;99.90;;;;;;5046756;28;20754;-82
2022/10/26 04:08:40;;;;;;;;;;;14.20;99.90;;;;;;5045863;28;20268;-82
2022/10/26 04:11:05;;;;;;;;;;;14.20;99.90;;;;;;5046766;28;19956;-81
2022/10/26 04:13:31;;;;;;;;;;;14.10;99.90;;;;;;5046713;28;20033;-81
2022/10/26 04:15:57;;;;;;;;;;;14.20;99.90;;;;;;5029710;28;19970;-81
2022/10/26 04:18:22;;;;;;;;;;;14.20;99.90;;;;;;5029641;28;19916;-81
2022/10/26 04:20:48;;;;;;;;;;;14.30;99.90;;;;;;5028927;28;19917;-82
2022/10/26 04:23:14;;;;;;;;;;;14.30;99.90;;;;;;5046423;28;20323;-82
2022/10/26 04:25:40;;;;;;;;;;;14.30;99.90;;;;;;5045338;28;19917;-82
2022/10/26 04:28:06;;;;;;;;;;;14.30;99.90;;;;;;5047186;28;19928;-82
2022/10/26 04:30:32;;;;;;;;;;;14.20;99.90;;;;;;5047203;28;19920;-82
2022/10/26 04:32:58;;;;;;;;;;;14.20;99.90;;;;;;5046203;28;20000;-83
2022/10/26 04:35:23;;;;;;;;;;;14.10;99.90;;;;;;5047293;28;19920;-82
2022/10/26 04:37:49;;;;;;;;;;;14.00;99.90;;;;;;5047113;28;19923;-82
2022/10/26 04:40:14;;;;;;;;;;;13.90;99.90;;;;;;5047121;28;20348;-82
2022/10/26 04:42:41;;;;;;;;;;;13.80;99.90;;;;;;5046901;28;20531;-83
2022/10/26 04:45:07;;;;;;;;;;;13.70;99.90;;;;;;5044044;28;20731;-83
2022/10/26 04:47:32;;;;;;;;;;;13.60;99.90;;;;;;5046889;28;19917;-83
2022/10/26 04:49:58;;;;;;;;;;;13.70;99.90;;;;;;5047205;28;20004;-83
2022/10/26 04:52:23;;;;;;;;;;;13.80;99.90;;;;;;5046172;28;19940;-81
2022/10/26 04:54:49;;;;;;;;;;;13.80;99.90;;;;;;5044105;28;19928;-81
2022/10/26 04:57:14;;;;;;;;;;;13.90;99.90;;;;;;5046677;28;19917;-82
2022/10/26 04:59:40;;;;;;;;;;;13.80;99.90;;;;;;5028118;28;19917;-81
2022/10/26 05:02:05;;;;;;;;;;;13.80;99.90;;;;;;5043892;28;19928;-80
2022/10/26 05:04:31;;;;;;;;;;;13.70;99.90;;;;;;5045629;28;20422;-82
2022/10/26 05:06:56;;;;;;;;;;;13.80;99.90;;;;;;5046475;28;19931;-81
2022/10/26 05:09:22;;;;;;;;;;;13.80;99.90;;;;;;5028986;28;19931;-82
2022/10/26 05:11:47;;;;;;;;;;;13.80;99.90;;;;;;5027473;28;20011;-84
2022/10/26 05:14:13;;;;;;;;;;;13.70;99.90;;;;;;5027454;28;19925;-81
2022/10/26 05:16:38;;;;;;;;;;;13.70;99.90;;;;;;5048404;28;19917;-84
2022/10/26 05:19:04;;;;;;;;;;;13.60;99.90;;;;;;5031971;28;19916;-83
2022/10/26 05:21:30;;;;;;;;;;;13.70;99.90;;;;;;5050909;28;19921;-81
2022/10/26 05:23:55;;;;;;;;;;;13.80;99.90;;;;;;5050695;28;19924;-80
2022/10/26 05:26:21;;;;;;;;;;;13.60;99.90;;;;;;5039116;28;20670;-79
2022/10/26 05:28:47;;;;;;;;;;;13.60;99.90;;;;;;5050914;28;19920;-80
2022/10/26 05:31:12;;;;;;;;;;;13.60;99.90;;;;;;5051514;28;19920;-80
2022/10/26 05:33:38;;;;;;;;;;;13.50;99.90;;;;;;5050754;28;20622;-80
2022/10/26 05:36:04;;;;;;;;;;;13.40;99.90;;;;;;5050813;28;20020;-80
2022/10/26 05:38:29;;;;;;;;;;;13.30;99.90;;;;;;5048982;28;19986;-80
2022/10/26 05:40:55;;;;;;;;;;;13.30;99.90;;;;;;5028892;28;20400;-79
2022/10/26 05:43:21;;;;;;;;;;;13.20;99.90;;;;;;5049861;28;19921;-80
2022/10/26 05:45:48;;;;;;;;;;;13.20;99.90;;;;;;5050375;28;19928;-80
2022/10/26 05:48:14;;;;;;;;;;;13.30;99.90;;;;;;5030937;28;19917;-79
2022/10/26 05:50:39;;;;;;;;;;;13.20;99.90;;;;;;5032749;28;19991;-80
2022/10/26 05:53:05;;;;;;;;;;;13.10;99.90;;;;;;5050081;28;19920;-80
2022/10/26 05:55:31;;;;;;;;;;;13.20;99.90;;;;;;5050438;28;19920;-82
2022/10/26 05:57:56;;;;;;;;;;;13.30;99.90;;;;;;5050673;28;20447;-83
2022/10/26 06:00:23;;;;;;;;;;;13.40;99.90;;;;;;5050506;28;19913;-82
2022/10/26 06:02:55;;;;;;;;;;;13.20;99.90;;;;;;5042039;28;20008;-82
2022/10/26 06:05:22;;;;;;;;;;;13.10;99.90;;;;;;5050592;28;19986;-80
2022/10/26 06:07:48;;;;;;;;;;;13.10;99.90;;;;;;5049805;28;19913;-81
2022/10/26 06:10:14;;;;;;;;;;;13.10;99.90;;;;;;5051093;28;19920;-81
2022/10/26 06:12:40;;;;;;;;;;;13.10;99.90;;;;;;5050360;28;19920;-81
2022/10/26 06:15:05;;;;;;;;;;;13.00;99.90;;;;;;5031913;28;19925;-85
2022/10/26 06:17:52;;;;;;;;;;;13.00;99.90;;;;;;5032118;28;20458;-85
2022/10/26 06:20:49;;;;;;;;;;;13.00;99.90;;;;;;5046002;28;20031;-81
2022/10/26 06:23:33;;;;;;;;;;;13.00;99.90;;;;;;5028191;28;20432;-81
2022/10/26 06:26:11;;;;;;;;;;;13.00;99.90;;;;;;5049833;28;19923;-82
2022/10/26 06:28:42;;;;;;;;;;;13.00;99.90;;;;;;5049759;28;19916;-81
2022/10/26 06:31:09;;;;;;;;;;;13.00;99.90;;;;;;5048517;28;19940;-80
2022/10/26 06:33:34;;;;;;;;;;;13.10;99.90;;;;;;5031796;28;19913;-80
2022/10/26 06:36:17;;;;;;;;;;;13.10;99.90;;;;;;5050046;28;19912;-80
2022/10/26 06:38:43;;;;;;;;;;;13.10;99.90;;;;;;5028298;28;20705;-80
2022/10/26 06:41:10;;;;;;;;;;;13.10;99.90;;;;;;5049669;28;19920;-81
2022/10/26 06:43:36;;;;;;;;;;;13.10;99.90;;;;;;5049226;28;19956;-81
2022/10/26 06:46:05;;;;;;;;;;;13.10;99.90;;;;;;5049620;28;20006;-80
2022/10/26 06:48:34;;;;;;;;;;;13.20;99.90;;;;;;5031631;28;19928;-81
2022/10/26 06:51:00;;;;;;;;;;;13.20;99.90;;;;;;5042629;28;20062;-81
2022/10/26 06:53:32;;;;;;;;;;;13.10;99.90;;;;;;5030786;28;20003;-81
2022/10/26 06:55:58;;;;;;;;;;;13.20;99.90;;;;;;5046202;28;19921;-81
2022/10/26 06:58:26;;;;;;;;;;;13.30;99.90;;;;;;5036657;28;20299;-81
2022/10/26 07:00:53;;;;;;;;;;;13.30;99.90;;;;;;5013214;28;19940;-81
2022/10/26 07:03:19;;;;;;;;;;;13.20;99.90;;;;;;5019864;28;20022;-81
2022/10/26 07:05:45;;;;;;;;;;;13.30;99.90;;;;;;5013727;28;19960;-80
2022/10/26 07:08:10;;;;;;;;;;;13.40;99.90;;;;;;5017255;28;19921;-80
2022/10/26 07:10:37;;;;;;;;;;;13.70;99.90;;;;;;5046635;28;19917;-81
2022/10/26 07:13:04;;;;;;;;;;;13.60;99.90;;;;;;5019203;28;19924;-80
2022/10/26 07:15:29;;;;;;;;;;;13.50;99.90;;;;;;5040668;28;19924;-81
2022/10/26 07:17:55;;;;;;;;;;;13.50;99.90;;;;;;5041968;28;19924;-81
2022/10/26 07:20:21;;;;;;;;;;;13.50;99.90;;;;;;5045761;28;20620;-80
2022/10/26 07:22:52;;;;;;;;;;;13.20;99.90;;;;;;5029363;28;20031;-82
2022/10/26 07:25:18;;;;;;;;;;;13.00;99.90;;;;;;5049640;28;19952;-80
2022/10/26 07:27:44;;;;;;;;;;;13.30;99.90;;;;;;5048579;28;19971;-83
2022/10/26 07:30:09;;;;;;;;;;;13.90;99.90;;;;;;5040212;28;19913;-83
2022/10/26 07:32:35;;;;;;;;;;;14.10;99.90;;;;;;5048432;28;19925;-81
2022/10/26 07:35:00;;;;;;;;;;;14.60;99.90;;;;;;5031086;28;19921;-86
2022/10/26 07:37:26;;;;;;;;;;;14.40;99.90;;;;;;5048474;28;19913;-82
2022/10/26 07:39:52;;;;;;;;;;;15.60;99.90;;;;;;5030975;28;19917;-81
2022/10/26 07:42:17;;;;;;;;;;;16.40;99.90;;;;;;5049237;28;20002;-81
2022/10/26 07:44:43;;;;;;;;;;;16.40;99.90;;;;;;5047992;28;20063;-83
2022/10/26 07:47:08;;;;;;;;;;;16.90;99.90;;;;;;5031661;28;19913;-82
2022/10/26 07:49:34;;;;;;;;;;;17.40;99.90;;;;;;5029010;28;20204;-82
2022/10/26 07:52:00;;;;;;;;;;;17.40;99.90;;;;;;5031177;28;19912;-83
2022/10/26 07:54:25;;;;;;;;;;;17.70;99.90;;;;;;5030010;28;19916;-82
2022/10/26 07:56:51;;;;;;;;;;;18.00;99.90;;;;;;5040057;28;19992;-84
2022/10/26 07:59:17;;;;;;;;;;;17.80;99.90;;;;;;5034628;28;19913;-84
2022/10/26 08:01:43;;;;;;;;;;;18.30;99.90;;;;;;5012926;28;20004;-85
2022/10/26 08:04:09;;;;;;;;;;;18.40;99.90;;;;;;5036336;28;19964;-85
2022/10/26 08:06:34;;;;;;;;;;;18.30;99.90;;;;;;5030393;28;19917;-84
2022/10/26 08:09:00;;;;;;;;;;;17.80;99.90;;;;;;5030109;28;20464;-89
2022/10/26 08:11:25;;;;;;;;;;;16.70;99.90;;;;;;5030046;28;19928;-85
2022/10/26 08:13:52;;;;;;;;;;;17.50;99.90;;;;;;5033164;28;19933;-84
2022/10/26 08:16:18;;;;;;;;;;;18.00;99.90;;;;;;5011667;28;19988;-84
2022/10/26 08:18:46;;;;;;;;;;;18.20;99.90;;;;;;5032539;28;19960;-83
2022/10/26 08:21:12;;;;;;;;;;;18.20;99.90;;;;;;5034742;28;20358;-82
2022/10/26 08:23:37;;;;;;;;;;;18.30;99.90;;;;;;5033596;28;19917;-82
2022/10/26 08:26:11;;;;;;;;;;;18.40;99.90;;;;;;5037064;28;20285;-83
2022/10/26 08:28:36;;;;;;;;;;;18.60;99.90;;;;;;5037927;28;19919;-82
2022/10/26 08:31:02;;;;;;;;;;;19.00;99.90;;;;;;5045615;28;19920;-84
2022/10/26 08:33:33;;;;;;;;;;;19.20;99.70;;;;;;5021174;28;19917;-85
2022/10/26 08:36:03;;;;;;;;;;;19.40;99.30;;;;;;5021972;28;19924;-86
2022/10/26 08:38:29;;;;;;;;;;;19.30;99.10;;;;;;5021466;28;19916;-85
2022/10/26 08:40:56;;;;;;;;;;;18.90;99.90;;;;;;5018459;28;20427;-85
2022/10/26 08:43:30;;;;;;;;;;;17.80;99.90;;;;;;5038930;28;19920;-84
2022/10/26 08:45:59;;;;;;;;;;;17.70;99.90;;;;;;5035493;28;19913;-86
2022/10/26 08:48:27;;;;;;;;;;;18.00;99.90;;;;;;5040320;28;19928;-87
2022/10/26 08:51:00;;;;;;;;;;;18.00;99.90;;;;;;5033696;28;19917;-88
2022/10/26 08:53:31;;;;;;;;;;;17.70;99.90;;;;;;5029336;28;19912;-86
2022/10/26 08:56:02;;;;;;;;;;;17.90;99.90;;;;;;5046957;28;19955;-89
2022/10/26 08:58:35;;;;;;;;;;;18.50;99.90;;;;;;5045888;28;19986;-89
2022/10/26 09:01:02;;;;;;;;;;;18.40;99.90;;;;;;5018845;28;20000;-86
2022/10/26 09:03:27;;;;;;;;;;;19.50;99.90;;;;;;5019899;28;19948;-85
2022/10/26 09:06:03;;;;;;;;;;;18.70;99.90;;;;;;5031426;28;19913;-87
2022/10/26 09:08:54;;;;;;;;;;;18.90;99.90;;;;;;5042724;28;20577;-89
2022/10/26 09:11:35;;;;;;;;;;;19.10;99.60;;;;;;5030185;28;19923;-89
2022/10/26 09:14:18;;;;;;;;;;;19.30;99.20;;;;;;4970021;28;1919069;-90
2022/10/26 09:16:44;;;;;;;;;;;20.00;98.20;;;;;;5030117;28;19980;-89
2022/10/26 09:19:09;;;;;;;;;;;19.60;98.50;;;;;;5054296;28;20604;-88
2022/10/26 09:21:54;;;;;;;;;;;19.00;99.20;;;;;;5029927;28;20524;-89
2022/10/26 09:24:46;;;;;;;;;;;19.50;98.20;;;;;;5030791;28;19970;-89
2022/10/26 09:27:28;;;;;;;;;;;19.90;98.00;;;;;;5047442;28;19913;-87
2022/10/26 09:29:57;;;;;;;;;;;19.90;98.20;;;;;;5027114;28;19916;-88
2022/10/26 09:32:27;;;;;;;;;;;19.80;98.70;;;;;;5047490;28;20323;-88
2022/10/26 09:34:57;;;;;;;;;;;19.60;98.90;;;;;;5047644;28;19909;-89
2022/10/26 09:37:25;;;;;;;;;;;19.20;98.60;;;;;;5047826;28;19984;-88
2022/10/26 09:39:51;;;;;;;;;;;19.60;99.30;;;;;;5029360;28;19939;-87
2022/10/26 09:42:38;;;;;;;;;;;20.50;98.70;;;;;;5029234;28;19943;-88
2022/10/26 09:45:05;;;;;;;;;;;20.80;97.30;;;;;;5029677;28;19909;-88
2022/10/26 09:47:38;;;;;;;;;;;20.80;96.80;;;;;;5028914;28;19916;-88
2022/10/26 09:50:13;;;;;;;;;;;20.90;96.80;;;;;;5046924;28;19958;-88
2022/10/26 09:52:38;;;;;;;;;;;20.90;97.10;;;;;;5046767;28;20726;-88
2022/10/26 09:55:04;;;;;;;;;;;20.80;96.80;;;;;;5029187;28;19913;-88
2022/10/26 09:57:30;;;;;;;;;;;20.80;97.50;;;;;;5025432;28;19919;-87
2022/10/26 09:59:56;;;;;;;;;;;20.80;98.50;;;;;;5046889;28;20019;-88
2022/10/26 10:02:31;;;;;;;;;;;20.70;97.30;;;;;;5030339;28;19948;-88
2022/10/26 10:04:56;;;;;;;;;;;20.80;97.30;;;;;;5033930;28;19913;-88
2022/10/26 10:07:22;;;;;;;;;;;20.90;98.50;;;;;;5033137;28;19917;-88
2022/10/26 10:10:05;;;;;;;;;;;21.00;99.00;;;;;;5033213;28;20050;-88
2022/10/26 10:12:30;;;;;;;;;;;21.00;97.70;;;;;;5042160;28;20360;-88
2022/10/26 10:14:57;;;;;;;;;;;20.90;98.80;;;;;;5051286;28;19951;-88
2022/10/26 10:17:23;;;;;;;;;;;20.80;97.50;;;;;;5037657;28;19908;-88
2022/10/26 10:19:49;;;;;;;;;;;20.70;98.10;;;;;;5036271;28;19916;-88
2022/10/26 10:22:14;;;;;;;;;;;20.80;99.90;;;;;;5050958;28;19931;-88
2022/10/26 10:24:41;;;;;;;;;;;20.90;98.40;;;;;;5051420;28;19913;-88
2022/10/26 10:27:07;;;;;;;;;;;20.90;98.90;;;;;;5039159;28;19919;-88
2022/10/26 10:29:33;;;;;;;;;;;20.90;98.30;;;;;;5051166;28;19917;-87
2022/10/26 10:32:00;;;;;;;;;;;20.80;97.70;;;;;;5050383;28;19916;-88
2022/10/26 10:34:28;;;;;;;;;;;20.90;98.10;;;;;;5050939;28;19931;-88
2022/10/26 10:36:54;;;;;;;;;;;20.90;98.40;;;;;;5032854;28;19909;-88
2022/10/26 10:39:27;;;;;;;;;;;20.90;97.50;;;;;;5050995;28;20822;-88
2022/10/26 10:41:53;;;;;;;;;;;20.90;99.30;;;;;;5026659;28;19966;-88
2022/10/26 10:44:18;;;;;;;;;;;21.00;98.20;;;;;;5051026;28;19913;-89
2022/10/26 10:46:44;;;;;;;;;;;20.90;97.70;;;;;;5050659;28;19920;-88
2022/10/26 10:49:18;;;;;;;;;;;21.10;98.00;;;;;;5050746;28;19952;-88
2022/10/26 10:51:44;;;;;;;;;;;21.20;99.20;;;;;;5026747;28;19939;-88
2022/10/26 10:54:36;;;;;;;;;;;21.20;99.00;;;;;;5032584;28;19912;-88
2022/10/26 10:57:18;;;;;;;;;;;21.30;96.90;;;;;;5039367;28;19917;-88
2022/10/26 10:59:52;;;;;;;;;;;21.30;98.10;;;;;;5049861;28;19967;-87
2022/10/26 11:02:20;;;;;;;;;;;21.30;98.20;;;;;;5049613;28;20482;-87
2022/10/26 11:04:53;;;;;;;;;;;21.30;97.60;;;;;;5049847;28;19951;-88
2022/10/26 11:07:20;;;;;;;;;;;21.30;97.50;;;;;;5050130;28;19936;-88
2022/10/26 11:09:47;;;;;;;;;;;21.40;97.60;;;;;;5050381;28;19913;-88
2022/10/26 11:12:15;;;;;;;;;;;21.30;97.10;;;;;;5032313;28;19909;-88
2022/10/26 11:14:45;;;;;;;;;;;21.40;97.50;;;;;;5048708;28;19935;-87
2022/10/26 11:17:10;;;;;;;;;;;21.30;97.50;;;;;;5035398;28;19913;-88
2022/10/26 11:19:48;;;;;;;;;;;21.30;97.70;;;;;;5036407;28;20751;-87
2022/10/26 11:22:19;;;;;;;;;;;21.40;97.60;;;;;;5023472;28;19917;-89
2022/10/26 11:24:56;;;;;;;;;;;21.50;95.80;;;;;;5050173;28;19963;-88
2022/10/26 11:27:29;;;;;;;;;;;21.60;95.00;;;;;;5035912;28;20459;-87
2022/10/26 11:30:13;;;;;;;;;;;21.60;94.00;;;;;;5049989;28;19913;-88
2022/10/26 11:32:39;;;;;;;;;;;21.50;93.60;;;;;;5049224;28;20689;-87
2022/10/26 11:35:18;;;;;;;;;;;21.80;95.60;;;;;;5049709;28;19986;-87
2022/10/26 11:37:43;;;;;;;;;;;21.80;95.80;;;;;;5048085;28;19963;-88
2022/10/26 11:40:27;;;;;;;;;;;21.80;94.00;;;;;;5030746;28;19952;-88
2022/10/26 11:43:12;;;;;;;;;;;21.80;94.40;;;;;;5027388;28;19921;-88
2022/10/26 11:45:40;;;;;;;;;;;21.90;93.60;;;;;;5031371;28;19923;-88
2022/10/26 11:48:11;;;;;;;;;;;21.60;94.00;;;;;;5031766;28;19913;-87
2022/10/26 11:50:40;;;;;;;;;;;21.90;93.70;;;;;;5048975;28;20011;-86
2022/10/26 11:53:11;;;;;;;;;;;21.80;93.00;;;;;;5049065;28;19920;-86
2022/10/26 11:55:37;;;;;;;;;;;21.90;94.10;;;;;;5031197;28;19920;-86
2022/10/26 11:58:03;;;;;;;;;;;22.00;94.50;;;;;;5048633;28;19913;-86
2022/10/26 12:00:29;;;;;;;;;;;22.20;93.90;;;;;;5048792;28;19909;-87
2022/10/26 12:02:56;;;;;;;;;;;22.10;93.50;;;;;;5037672;28;19917;-87
2022/10/26 12:05:26;;;;;;;;;;;22.00;92.30;;;;;;5047676;28;20884;-86
2022/10/26 12:07:56;;;;;;;;;;;22.10;91.30;;;;;;5030423;28;19913;-87
2022/10/26 12:10:24;;;;;;;;;;;22.00;90.50;;;;;;5030552;28;19917;-85
2022/10/26 12:12:53;;;;;;;;;;;22.10;90.00;;;;;;5048640;28;19952;-86
2022/10/26 12:15:22;;;;;;;;;;;22.10;90.00;;;;;;5048925;28;19970;-86
2022/10/26 12:18:22;;;;;;;;;;;22.30;88.30;;;;;;5055330;28;19916;-87
2022/10/26 12:21:01;;;;;;;;;;;22.20;87.40;;;;;;4947814;29;19914;-86
2022/10/26 12:23:27;;;;;;;;;;;22.10;88.40;;;;;;5023538;28;19916;-86
2022/10/26 12:26:12;;;;;;;;;;;22.00;87.60;;;;;;5053249;28;19912;-86
2022/10/26 12:28:39;;;;;;;;;;;22.10;84.10;;;;;;5020730;28;19912;-87
2022/10/26 12:31:23;;;;;;;;;;;22.20;83.40;;;;;;5047788;28;19920;-86
2022/10/26 12:33:50;;;;;;;;;;;22.20;83.70;;;;;;5047587;28;19938;-86
2022/10/26 12:36:34;;;;;;;;;;;22.20;83.70;;;;;;5029384;28;20090;-85
2022/10/26 12:39:00;;;;;;;;;;;22.20;81.70;;;;;;5047585;28;19913;-87
2022/10/26 12:41:26;;;;;;;;;;;22.30;79.70;;;;;;5047370;28;19913;-86
2022/10/26 12:43:56;;;;;;;;;;;22.40;79.80;;;;;;5029615;28;19938;-86
2022/10/26 12:46:24;;;;;;;;;;;22.50;81.70;;;;;;5029637;28;19962;-86
2022/10/26 12:48:50;;;;;;;;;;;22.60;79.90;;;;;;5030113;28;19952;-86
2022/10/26 12:51:25;;;;;;;;;;;22.60;80.30;;;;;;5029808;28;19913;-86
2022/10/26 12:53:54;;;;;;;;;;;22.80;81.30;;;;;;5048201;28;19934;-86
2022/10/26 12:56:23;;;;;;;;;;;22.90;80.60;;;;;;5048166;28;19920;-86
2022/10/26 12:58:57;;;;;;;;;;;23.00;79.90;;;;;;5048045;28;19959;-86
2022/10/26 13:01:43;;;;;;;;;;;23.10;80.10;;;;;;5028815;28;20333;-86
2022/10/26 13:04:15;;;;;;;;;;;23.10;79.70;;;;;;5036377;28;19913;-87
2022/10/26 13:07:04;;;;;;;;;;;23.10;79.90;;;;;;5047299;28;19913;-86
2022/10/26 13:09:31;;;;;;;;;;;23.20;80.00;;;;;;5029839;28;19913;-86
2022/10/26 13:11:59;;;;;;;;;;;23.20;79.40;;;;;;5029262;28;19913;-86
2022/10/26 13:14:48;;;;;;;;;;;23.20;79.60;;;;;;5047163;28;19970;-87
2022/10/26 13:17:27;;;;;;;;;;;23.20;77.30;;;;;;5013525;28;19913;-86
2022/10/26 13:19:57;;;;;;;;;;;23.10;78.40;;;;;;5049089;28;19955;-86
2022/10/26 13:22:23;;;;;;;;;;;23.10;78.10;;;;;;5047085;28;19966;-86
2022/10/26 13:24:53;;;;;;;;;;;23.10;77.40;;;;;;5029166;28;19951;-86
2022/10/26 13:27:18;;;;;;;;;;;23.00;78.20;;;;;;5033371;28;19959;-86
2022/10/26 13:30:02;;;;;;;;;;;23.10;79.50;;;;;;5047709;28;19916;-86
2022/10/26 13:32:28;;;;;;;;;;;23.00;76.70;;;;;;5029128;28;19913;-86
2022/10/26 13:34:55;;;;;;;;;;;23.00;77.40;;;;;;5029756;28;19920;-86
2022/10/26 13:37:23;;;;;;;;;;;23.00;78.60;;;;;;5048421;28;19913;-86
2022/10/26 13:39:49;;;;;;;;;;;23.00;77.40;;;;;;5051595;28;19920;-86
2022/10/26 13:42:17;;;;;;;;;;;23.00;77.70;;;;;;5032740;28;19917;-86
2022/10/26 13:44:58;;;;;;;;;;;23.10;77.80;;;;;;5033248;28;19924;-86
2022/10/26 13:47:56;;;;;;;;;;;23.10;77.20;;;;;;5032733;28;19919;-86
2022/10/26 13:50:23;;;;;;;;;;;23.10;76.70;;;;;;4995271;28;19967;-86
2022/10/26 13:52:54;;;;;;;;;;;23.10;76.30;;;;;;5050578;28;20787;-86
2022/10/26 13:55:22;;;;;;;;;;;23.20;76.70;;;;;;5032837;28;19916;-86
2022/10/26 13:58:00;;;;;;;;;;;23.30;75.00;;;;;;5047456;28;19924;-86
2022/10/26 14:00:25;;;;;;;;;;;23.40;75.80;;;;;;5033204;28;19913;-85
2022/10/26 14:02:51;;;;;;;;;;;23.40;74.00;;;;;;5033069;28;20363;-86
2022/10/26 14:05:17;;;;;;;;;;;23.40;73.50;;;;;;5050831;28;20014;-86
2022/10/26 14:07:43;;;;;;;;;;;23.40;74.50;;;;;;5050491;28;19947;-86
2022/10/26 14:10:28;;;;;;;;;;;23.40;74.90;;;;;;5050917;28;19944;-86
2022/10/26 14:12:54;;;;;;;;;;;23.30;74.60;;;;;;5050927;28;19920;-87
2022/10/26 14:15:27;;;;;;;;;;;23.30;75.10;;;;;;5050389;28;19924;-86
2022/10/26 14:17:53;;;;;;;;;;;23.20;75.30;;;;;;5038605;28;19919;-85
2022/10/26 14:20:20;;;;;;;;;;;23.20;74.60;;;;;;5050759;28;19994;-86
2022/10/26 14:22:46;;;;;;;;;;;23.00;74.70;;;;;;5032203;28;19916;-86
2022/10/26 14:25:19;;;;;;;;;;;22.80;76.70;;;;;;5030448;28;20515;-87
2022/10/26 14:27:44;;;;;;;;;;;22.70;77.40;;;;;;5053786;28;19912;-86